sensor_id;sensor_type;location;lat;lon;timestamp;pressure;altitude;pressure_sealevel;temperature;humidity
11912;BME280;6016;41.928;25.556;2022-11-23T00:01:26;97927.78;;;12.98;82.71
11912;BME280;6016;41.928;25.556;2022-11-23T00:03:56;97963.78;;;13.44;82.75
11912;BME280;6016;41.928;25.556;2022-11-23T00:06:24;97943.06;;;13.33;82.54
11912;BME280;6016;41.928;25.556;2022-11-23T00:08:52;97587.44;;;11.13;82.73
11912;BME280;6016;41.928;25.556;2022-11-23T00:11:22;97957.97;;;13.71;83.14
11912;BME280;6016;41.928;25.556;2022-11-23T00:13:50;97961.06;;;13.74;82.17
11912;BME280;6016;41.928;25.556;2022-11-23T00:16:18;97957.91;;;13.86;81.65
11912;BME280;6016;41.928;25.556;2022-11-23T00:18:45;97958.59;;;13.95;81.43
11912;BME280;6016;41.928;25.556;2022-11-23T00:21:14;97950.44;;;13.96;81.35
11912;BME280;6016;41.928;25.556;2022-11-23T00:23:42;97692.56;;;12.30;80.14
11912;BME280;6016;41.928;25.556;2022-11-23T00:26:10;97941.19;;;13.85;80.67
11912;BME280;6016;41.928;25.556;2022-11-23T00:28:38;97864.00;;;13.30;82.32
11912;BME280;6016;41.928;25.556;2022-11-23T00:31:07;97916.59;;;13.70;82.31
11912;BME280;6016;41.928;25.556;2022-11-23T00:33:35;97921.03;;;13.69;82.86
11912;BME280;6016;41.928;25.556;2022-11-23T00:36:04;97905.72;;;13.64;82.95
11912;BME280;6016;41.928;25.556;2022-11-23T00:38:31;97901.19;;;13.43;83.24
11912;BME280;6016;41.928;25.556;2022-11-23T00:40:59;97886.88;;;13.16;84.35
11912;BME280;6016;41.928;25.556;2022-11-23T00:43:26;97907.88;;;13.39;84.62
11912;BME280;6016;41.928;25.556;2022-11-23T00:46:06;97904.22;;;13.40;84.66
11912;BME280;6016;41.928;25.556;2022-11-23T00:48:34;97899.31;;;13.37;85.97
11912;BME280;6016;41.928;25.556;2022-11-23T00:51:01;97844.94;;;12.98;85.70
11912;BME280;6016;41.928;25.556;2022-11-23T00:53:28;97849.56;;;12.95;85.75
11912;BME280;6016;41.928;25.556;2022-11-23T00:55:55;97879.84;;;13.08;86.07
11912;BME280;6016;41.928;25.556;2022-11-23T00:58:23;97642.22;;;11.41;85.99
11912;BME280;6016;41.928;25.556;2022-11-23T01:00:59;97891.88;;;13.11;86.23
11912;BME280;6016;41.928;25.556;2022-11-23T01:03:28;97905.97;;;13.33;85.87
11912;BME280;6016;41.928;25.556;2022-11-23T01:05:55;97906.34;;;13.45;85.23
11912;BME280;6016;41.928;25.556;2022-11-23T01:08:22;97867.75;;;13.20;84.57
11912;BME280;6016;41.928;25.556;2022-11-23T01:10:49;97643.41;;;11.84;84.44
11912;BME280;6016;41.928;25.556;2022-11-23T01:13:16;97885.25;;;13.36;85.07
11912;BME280;6016;41.928;25.556;2022-11-23T01:15:48;97882.97;;;13.33;85.59
11912;BME280;6016;41.928;25.556;2022-11-23T01:18:15;97890.47;;;13.30;86.21
11912;BME280;6016;41.928;25.556;2022-11-23T01:20:43;97882.81;;;13.35;85.34
11912;BME280;6016;41.928;25.556;2022-11-23T01:23:10;97886.06;;;13.37;85.40
11912;BME280;6016;41.928;25.556;2022-11-23T01:25:37;97878.94;;;13.37;85.19
11912;BME280;6016;41.928;25.556;2022-11-23T01:28:04;97872.00;;;13.36;85.54
11912;BME280;6016;41.928;25.556;2022-11-23T01:30:31;97870.19;;;13.37;85.19
11912;BME280;6016;41.928;25.556;2022-11-23T01:32:59;97869.28;;;13.45;85.91
11912;BME280;6016;41.928;25.556;2022-11-23T01:35:26;97819.81;;;13.30;86.42
11912;BME280;6016;41.928;25.556;2022-11-23T01:37:55;97861.50;;;13.65;84.96
11912;BME280;6016;41.928;25.556;2022-11-23T01:40:22;97851.72;;;13.66;85.10
11912;BME280;6016;41.928;25.556;2022-11-23T01:42:52;97742.38;;;12.85;84.96
11912;BME280;6016;41.928;25.556;2022-11-23T01:45:34;97817.31;;;13.07;85.66
11912;BME280;6016;41.928;25.556;2022-11-23T01:48:03;97876.81;;;13.48;85.94
11912;BME280;6016;41.928;25.556;2022-11-23T01:50:31;97867.69;;;13.50;86.53
11912;BME280;6016;41.928;25.556;2022-11-23T01:53:00;97840.28;;;13.43;85.81
11912;BME280;6016;41.928;25.556;2022-11-23T01:55:27;97858.28;;;13.48;85.88
11912;BME280;6016;41.928;25.556;2022-11-23T01:57:54;97760.97;;;12.91;86.38
11912;BME280;6016;41.928;25.556;2022-11-23T02:00:21;97586.94;;;11.85;85.73
11912;BME280;6016;41.928;25.556;2022-11-23T02:02:52;97796.03;;;13.15;85.75
11912;BME280;6016;41.928;25.556;2022-11-23T02:05:22;97849.72;;;13.46;86.28
11912;BME280;6016;41.928;25.556;2022-11-23T02:07:51;97660.28;;;12.34;86.30
11912;BME280;6016;41.928;25.556;2022-11-23T02:10:20;97839.00;;;13.54;86.00
11912;BME280;6016;41.928;25.556;2022-11-23T02:12:48;97835.50;;;13.54;85.84
11912;BME280;6016;41.928;25.556;2022-11-23T02:15:15;97849.09;;;13.66;85.91
11912;BME280;6016;41.928;25.556;2022-11-23T02:17:42;97842.50;;;13.61;85.78
11912;BME280;6016;41.928;25.556;2022-11-23T02:20:12;97831.09;;;13.61;86.47
11912;BME280;6016;41.928;25.556;2022-11-23T02:22:49;97709.03;;;12.90;86.25
11912;BME280;6016;41.928;25.556;2022-11-23T02:25:27;97768.13;;;13.41;86.55
11912;BME280;6016;41.928;25.556;2022-11-23T02:28:01;97817.47;;;13.64;86.04
11912;BME280;6016;41.928;25.556;2022-11-23T02:30:28;97790.97;;;13.42;86.40
11912;BME280;6016;41.928;25.556;2022-11-23T02:32:55;97764.75;;;13.26;87.24
11912;BME280;6016;41.928;25.556;2022-11-23T02:35:22;97804.59;;;13.61;87.42
11912;BME280;6016;41.928;25.556;2022-11-23T02:37:50;97768.63;;;13.45;86.87
11912;BME280;6016;41.928;25.556;2022-11-23T02:40:24;97765.88;;;13.38;87.28
11912;BME280;6016;41.928;25.556;2022-11-23T02:42:51;97796.84;;;13.59;86.93
11912;BME280;6016;41.928;25.556;2022-11-23T02:45:25;97582.25;;;12.23;87.07
11912;BME280;6016;41.928;25.556;2022-11-23T02:47:53;97774.72;;;13.45;87.45
11912;BME280;6016;41.928;25.556;2022-11-23T02:50:21;97779.53;;;13.63;87.04
11912;BME280;6016;41.928;25.556;2022-11-23T02:52:48;97660.84;;;12.95;86.61
11912;BME280;6016;41.928;25.556;2022-11-23T02:55:15;97778.34;;;13.66;86.72
11912;BME280;6016;41.928;25.556;2022-11-23T02:57:42;97777.91;;;13.62;87.29
11912;BME280;6016;41.928;25.556;2022-11-23T03:00:10;97775.22;;;13.56;87.15
11912;BME280;6016;41.928;25.556;2022-11-23T03:02:38;97782.97;;;13.57;87.70
11912;BME280;6016;41.928;25.556;2022-11-23T03:05:06;97760.81;;;13.43;88.13
11912;BME280;6016;41.928;25.556;2022-11-23T03:07:33;97787.25;;;13.58;88.42
11912;BME280;6016;41.928;25.556;2022-11-23T03:10:00;97790.59;;;13.45;90.40
11912;BME280;6016;41.928;25.556;2022-11-23T03:12:26;97774.97;;;13.29;90.87
11912;BME280;6016;41.928;25.556;2022-11-23T03:14:53;97782.53;;;13.54;90.54
11912;BME280;6016;41.928;25.556;2022-11-23T03:17:20;97786.00;;;13.54;91.04
11912;BME280;6016;41.928;25.556;2022-11-23T03:19:48;97786.88;;;13.61;90.76
11912;BME280;6016;41.928;25.556;2022-11-23T03:22:16;97789.72;;;13.60;91.42
11912;BME280;6016;41.928;25.556;2022-11-23T03:24:43;97777.41;;;13.52;91.53
11912;BME280;6016;41.928;25.556;2022-11-23T03:27:10;97715.59;;;12.94;92.08
11912;BME280;6016;41.928;25.556;2022-11-23T03:29:37;97791.88;;;13.49;92.83
11912;BME280;6016;41.928;25.556;2022-11-23T03:32:04;97782.94;;;13.50;93.41
11912;BME280;6016;41.928;25.556;2022-11-23T03:34:31;97786.00;;;13.54;93.98
11912;BME280;6016;41.928;25.556;2022-11-23T03:37:00;97793.53;;;13.50;93.05
11912;BME280;6016;41.928;25.556;2022-11-23T03:39:26;97600.59;;;12.25;94.15
11912;BME280;6016;41.928;25.556;2022-11-23T03:41:53;97774.06;;;13.43;94.64
11912;BME280;6016;41.928;25.556;2022-11-23T03:44:20;97779.31;;;13.36;96.31
11912;BME280;6016;41.928;25.556;2022-11-23T03:46:47;97787.19;;;13.08;94.96
11912;BME280;6016;41.928;25.556;2022-11-23T03:49:15;97772.72;;;13.47;95.16
11912;BME280;6016;41.928;25.556;2022-11-23T03:51:41;97756.03;;;13.54;95.02
11912;BME280;6016;41.928;25.556;2022-11-23T03:54:10;97756.03;;;13.54;94.63
11912;BME280;6016;41.928;25.556;2022-11-23T03:56:37;97747.56;;;13.43;94.33
11912;BME280;6016;41.928;25.556;2022-11-23T03:59:03;97735.19;;;13.44;94.76
11912;BME280;6016;41.928;25.556;2022-11-23T04:01:30;97521.63;;;12.15;94.33
11912;BME280;6016;41.928;25.556;2022-11-23T04:03:57;97739.34;;;13.53;94.17
11912;BME280;6016;41.928;25.556;2022-11-23T04:06:24;97385.06;;;11.35;94.21
11912;BME280;6016;41.928;25.556;2022-11-23T04:08:51;97712.06;;;13.37;94.73
11912;BME280;6016;41.928;25.556;2022-11-23T04:11:19;97722.50;;;13.39;95.17
11912;BME280;6016;41.928;25.556;2022-11-23T04:13:46;97728.53;;;13.33;95.04
11912;BME280;6016;41.928;25.556;2022-11-23T04:16:13;97623.97;;;12.65;95.16
11912;BME280;6016;41.928;25.556;2022-11-23T04:18:40;97321.75;;;10.77;95.76
11912;BME280;6016;41.928;25.556;2022-11-23T04:21:07;97682.47;;;12.99;96.13
11912;BME280;6016;41.928;25.556;2022-11-23T04:23:34;97709.00;;;13.34;95.98
11912;BME280;6016;41.928;25.556;2022-11-23T04:26:01;97725.69;;;13.56;96.34
11912;BME280;6016;41.928;25.556;2022-11-23T04:28:29;97741.66;;;13.41;96.41
11912;BME280;6016;41.928;25.556;2022-11-23T04:30:56;97730.22;;;13.62;96.13
11912;BME280;6016;41.928;25.556;2022-11-23T04:33:23;97734.75;;;13.69;96.40
11912;BME280;6016;41.928;25.556;2022-11-23T04:35:50;97704.28;;;13.58;96.28
11912;BME280;6016;41.928;25.556;2022-11-23T04:38:17;97544.72;;;12.57;96.38
11912;BME280;6016;41.928;25.556;2022-11-23T04:40:45;97727.25;;;13.72;96.55
11912;BME280;6016;41.928;25.556;2022-11-23T04:43:13;97726.06;;;13.82;95.47
11912;BME280;6016;41.928;25.556;2022-11-23T04:45:41;97716.06;;;13.84;95.11
11912;BME280;6016;41.928;25.556;2022-11-23T04:48:08;97719.81;;;13.96;95.17
11912;BME280;6016;41.928;25.556;2022-11-23T04:50:35;97731.03;;;13.91;94.82
11912;BME280;6016;41.928;25.556;2022-11-23T04:53:03;97743.28;;;13.99;94.68
11912;BME280;6016;41.928;25.556;2022-11-23T04:55:30;97743.66;;;13.96;94.33
11912;BME280;6016;41.928;25.556;2022-11-23T04:57:57;97743.53;;;14.11;93.97
11912;BME280;6016;41.928;25.556;2022-11-23T05:00:23;97747.44;;;14.15;92.90
11912;BME280;6016;41.928;25.556;2022-11-23T05:02:52;97721.50;;;14.04;92.41
11912;BME280;6016;41.928;25.556;2022-11-23T05:05:19;97717.56;;;13.93;91.82
11912;BME280;6016;41.928;25.556;2022-11-23T05:07:45;97681.19;;;13.73;92.07
11912;BME280;6016;41.928;25.556;2022-11-23T05:10:12;97716.78;;;13.99;91.75
11912;BME280;6016;41.928;25.556;2022-11-23T05:12:39;97737.63;;;14.09;91.99
11912;BME280;6016;41.928;25.556;2022-11-23T05:15:07;97732.94;;;14.11;91.35
11912;BME280;6016;41.928;25.556;2022-11-23T05:17:33;97718.47;;;14.14;90.75
11912;BME280;6016;41.928;25.556;2022-11-23T05:20:02;97717.81;;;13.98;91.16
11912;BME280;6016;41.928;25.556;2022-11-23T05:22:29;97672.81;;;13.76;91.38
11912;BME280;6016;41.928;25.556;2022-11-23T05:24:56;97720.47;;;14.05;91.04
11912;BME280;6016;41.928;25.556;2022-11-23T05:27:23;97715.59;;;14.09;91.34
11912;BME280;6016;41.928;25.556;2022-11-23T05:29:50;97721.69;;;14.02;91.92
11912;BME280;6016;41.928;25.556;2022-11-23T05:32:17;97686.06;;;13.76;92.50
11912;BME280;6016;41.928;25.556;2022-11-23T05:34:44;97721.72;;;14.09;92.33
11912;BME280;6016;41.928;25.556;2022-11-23T05:37:12;97699.97;;;13.85;92.43
11912;BME280;6016;41.928;25.556;2022-11-23T05:39:38;97726.56;;;13.99;93.31
11912;BME280;6016;41.928;25.556;2022-11-23T05:42:05;97717.72;;;13.85;94.52
11912;BME280;6016;41.928;25.556;2022-11-23T05:44:32;97718.63;;;13.70;95.00
11912;BME280;6016;41.928;25.556;2022-11-23T05:46:59;97707.63;;;13.67;95.26
11912;BME280;6016;41.928;25.556;2022-11-23T05:49:26;97730.69;;;13.73;95.08
11912;BME280;6016;41.928;25.556;2022-11-23T05:51:53;97702.16;;;13.75;94.75
11912;BME280;6016;41.928;25.556;2022-11-23T05:54:21;97728.47;;;14.12;94.86
11912;BME280;6016;41.928;25.556;2022-11-23T05:56:48;97725.84;;;14.18;94.20
11912;BME280;6016;41.928;25.556;2022-11-23T05:59:15;97718.34;;;14.29;93.88
11912;BME280;6016;41.928;25.556;2022-11-23T06:01:42;97722.84;;;14.35;93.15
11912;BME280;6016;41.928;25.556;2022-11-23T06:04:08;97680.16;;;14.16;92.80
11912;BME280;6016;41.928;25.556;2022-11-23T06:06:35;97716.56;;;14.49;92.48
11912;BME280;6016;41.928;25.556;2022-11-23T06:09:02;97679.75;;;14.26;91.98
11912;BME280;6016;41.928;25.556;2022-11-23T06:11:31;97720.88;;;14.57;92.06
11912;BME280;6016;41.928;25.556;2022-11-23T06:13:58;97722.50;;;14.58;91.53
11912;BME280;6016;41.928;25.556;2022-11-23T06:16:25;97716.78;;;14.55;91.87
11912;BME280;6016;41.928;25.556;2022-11-23T06:18:52;97692.84;;;14.34;91.46
11912;BME280;6016;41.928;25.556;2022-11-23T06:21:18;97628.69;;;13.97;91.57
11912;BME280;6016;41.928;25.556;2022-11-23T06:23:46;97639.53;;;14.16;91.70
11912;BME280;6016;41.928;25.556;2022-11-23T06:26:13;97669.78;;;14.35;91.89
11912;BME280;6016;41.928;25.556;2022-11-23T06:28:41;97748.28;;;14.71;91.31
11912;BME280;6016;41.928;25.556;2022-11-23T06:31:08;97749.47;;;14.69;91.46
11912;BME280;6016;41.928;25.556;2022-11-23T06:33:36;97751.56;;;14.73;91.28
11912;BME280;6016;41.928;25.556;2022-11-23T06:36:04;97743.16;;;14.70;90.87
11912;BME280;6016;41.928;25.556;2022-11-23T06:38:31;97766.06;;;14.77;90.63
11912;BME280;6016;41.928;25.556;2022-11-23T06:40:58;97710.78;;;14.32;90.47
11912;BME280;6016;41.928;25.556;2022-11-23T06:43:25;97789.16;;;14.77;90.79
11912;BME280;6016;41.928;25.556;2022-11-23T06:45:54;97786.91;;;14.81;91.00
11912;BME280;6016;41.928;25.556;2022-11-23T06:48:21;97726.03;;;14.17;89.78
11912;BME280;6016;41.928;25.556;2022-11-23T06:50:49;97796.22;;;14.63;89.12
11912;BME280;6016;41.928;25.556;2022-11-23T06:53:16;97749.16;;;14.30;87.93
11912;BME280;6016;41.928;25.556;2022-11-23T06:55:42;97795.63;;;14.68;87.72
11912;BME280;6016;41.928;25.556;2022-11-23T06:58:10;97798.06;;;14.62;86.87
11912;BME280;6016;41.928;25.556;2022-11-23T07:00:37;97791.69;;;14.50;86.71
11912;BME280;6016;41.928;25.556;2022-11-23T07:03:05;97741.16;;;14.23;87.41
11912;BME280;6016;41.928;25.556;2022-11-23T07:05:32;97788.44;;;14.55;87.46
11912;BME280;6016;41.928;25.556;2022-11-23T07:07:59;97633.63;;;13.36;86.37
11912;BME280;6016;41.928;25.556;2022-11-23T07:10:25;97790.59;;;13.96;84.66
11912;BME280;6016;41.928;25.556;2022-11-23T07:12:52;97780.69;;;13.83;85.43
11912;BME280;6016;41.928;25.556;2022-11-23T07:15:19;97821.50;;;13.88;85.44
11912;BME280;6016;41.928;25.556;2022-11-23T07:17:46;97808.78;;;14.05;84.12
11912;BME280;6016;41.928;25.556;2022-11-23T07:20:15;97792.69;;;13.78;85.16
11912;BME280;6016;41.928;25.556;2022-11-23T07:22:42;97717.44;;;13.44;84.76
11912;BME280;6016;41.928;25.556;2022-11-23T08:58:40;97819.69;;;15.22;82.47
11912;BME280;6016;41.928;25.556;2022-11-23T09:01:07;97817.81;;;15.09;81.25
11912;BME280;6016;41.928;25.556;2022-11-23T09:03:34;97826.41;;;15.04;81.24
11912;BME280;6016;41.928;25.556;2022-11-23T09:06:01;97736.97;;;14.42;81.76
11912;BME280;6016;41.928;25.556;2022-11-23T09:08:28;97823.13;;;15.02;81.21
11912;BME280;6016;41.928;25.556;2022-11-23T09:10:58;97813.72;;;14.99;81.17
11912;BME280;6016;41.928;25.556;2022-11-23T09:13:25;97726.13;;;14.44;80.65
11912;BME280;6016;41.928;25.556;2022-11-23T09:15:57;97797.31;;;14.75;81.88
11912;BME280;6016;41.928;25.556;2022-11-23T09:18:24;97806.50;;;14.73;82.06
11912;BME280;6016;41.928;25.556;2022-11-23T09:20:51;97751.84;;;14.37;81.88
11912;BME280;6016;41.928;25.556;2022-11-23T09:23:17;97801.19;;;14.73;81.96
11912;BME280;6016;41.928;25.556;2022-11-23T09:25:44;97798.34;;;14.81;82.43
11912;BME280;6016;41.928;25.556;2022-11-23T09:28:13;97794.28;;;14.85;81.61
11912;BME280;6016;41.928;25.556;2022-11-23T09:30:40;97764.66;;;14.82;81.91
11912;BME280;6016;41.928;25.556;2022-11-23T09:33:08;97784.75;;;15.04;80.79
11912;BME280;6016;41.928;25.556;2022-11-23T09:35:35;97793.31;;;15.13;81.64
11912;BME280;6016;41.928;25.556;2022-11-23T09:38:02;97760.38;;;14.87;80.73
11912;BME280;6016;41.928;25.556;2022-11-23T09:40:31;97786.56;;;15.04;80.79
11912;BME280;6016;41.928;25.556;2022-11-23T09:43:09;97757.53;;;14.96;80.50
11912;BME280;6016;41.928;25.556;2022-11-23T09:45:46;97778.00;;;15.22;81.69
11912;BME280;6016;41.928;25.556;2022-11-23T09:48:36;97726.69;;;14.95;79.85
11912;BME280;6016;41.928;25.556;2022-11-23T09:51:14;97764.91;;;15.34;80.77
11912;BME280;6016;41.928;25.556;2022-11-23T09:53:44;97764.53;;;15.37;79.94
11912;BME280;6016;41.928;25.556;2022-11-23T09:56:15;97552.78;;;13.89;79.14
11912;BME280;6016;41.928;25.556;2022-11-23T09:58:43;97759.00;;;15.39;79.93
11912;BME280;6016;41.928;25.556;2022-11-23T10:01:12;97757.59;;;15.50;79.90
11912;BME280;6016;41.928;25.556;2022-11-23T10:03:43;97752.47;;;15.55;79.37
11912;BME280;6016;41.928;25.556;2022-11-23T10:06:16;97748.59;;;15.57;79.45
11912;BME280;6016;41.928;25.556;2022-11-23T10:08:53;97593.31;;;14.59;79.29
11912;BME280;6016;41.928;25.556;2022-11-23T10:11:37;97745.69;;;15.66;79.56
11912;BME280;6016;41.928;25.556;2022-11-23T10:14:16;97717.53;;;15.31;78.81
11912;BME280;6016;41.928;25.556;2022-11-23T10:16:53;97737.72;;;15.72;78.34
11912;BME280;6016;41.928;25.556;2022-11-23T10:19:30;97733.22;;;15.73;78.33
11912;BME280;6016;41.928;25.556;2022-11-23T10:22:04;97742.59;;;15.89;78.70
11912;BME280;6016;41.928;25.556;2022-11-23T10:24:38;97751.63;;;15.95;78.85
11912;BME280;6016;41.928;25.556;2022-11-23T10:27:12;97745.06;;;15.91;77.86
11912;BME280;6016;41.928;25.556;2022-11-23T10:29:41;97691.75;;;15.45;77.37
11912;BME280;6016;41.928;25.556;2022-11-23T10:32:19;97716.22;;;15.81;78.22
11912;BME280;6016;41.928;25.556;2022-11-23T10:34:57;97753.41;;;16.08;77.57
11912;BME280;6016;41.928;25.556;2022-11-23T10:37:25;97747.88;;;16.16;77.17
11912;BME280;6016;41.928;25.556;2022-11-23T10:39:52;97680.03;;;15.80;77.21
11912;BME280;6016;41.928;25.556;2022-11-23T10:42:29;97752.34;;;16.22;77.12
11912;BME280;6016;41.928;25.556;2022-11-23T10:44:58;97749.91;;;16.27;78.08
11912;BME280;6016;41.928;25.556;2022-11-23T10:47:38;97746.44;;;16.20;76.99
11912;BME280;6016;41.928;25.556;2022-11-23T10:50:25;97751.53;;;16.28;77.07
11912;BME280;6016;41.928;25.556;2022-11-23T10:52:55;97740.91;;;16.22;76.32
11912;BME280;6016;41.928;25.556;2022-11-23T10:55:29;97742.50;;;16.29;76.39
11912;BME280;6016;41.928;25.556;2022-11-23T10:57:57;97690.47;;;15.95;77.12
11912;BME280;6016;41.928;25.556;2022-11-23T11:00:25;97742.97;;;16.20;77.88
11912;BME280;6016;41.928;25.556;2022-11-23T11:02:54;97733.13;;;16.20;77.06
11912;BME280;6016;41.928;25.556;2022-11-23T11:05:30;97737.78;;;16.31;76.34
11912;BME280;6016;41.928;25.556;2022-11-23T11:07:59;97708.41;;;16.13;76.83
11912;BME280;6016;41.928;25.556;2022-11-23T11:10:36;97742.81;;;16.53;76.90
11912;BME280;6016;41.928;25.556;2022-11-23T11:13:20;97746.09;;;16.55;75.72
11912;BME280;6016;41.928;25.556;2022-11-23T11:15:54;97614.66;;;15.65;76.15
11912;BME280;6016;41.928;25.556;2022-11-23T11:18:25;97708.28;;;16.40;76.27
11912;BME280;6016;41.928;25.556;2022-11-23T11:21:00;97742.47;;;16.82;76.84
11912;BME280;6016;41.928;25.556;2022-11-23T11:23:29;97748.06;;;16.99;74.46
11912;BME280;6016;41.928;25.556;2022-11-23T11:26:05;97745.34;;;17.12;73.69
11912;BME280;6016;41.928;25.556;2022-11-23T11:28:35;97744.28;;;17.20;73.49
11912;BME280;6016;41.928;25.556;2022-11-23T11:31:15;97746.72;;;17.22;72.32
11912;BME280;6016;41.928;25.556;2022-11-23T11:33:52;97745.34;;;17.19;72.38
11912;BME280;6016;41.928;25.556;2022-11-23T11:36:26;97749.22;;;17.17;72.58
11912;BME280;6016;41.928;25.556;2022-11-23T11:38:56;97742.69;;;17.12;73.40
11912;BME280;6016;41.928;25.556;2022-11-23T11:41:26;97738.44;;;17.05;73.12
11912;BME280;6016;41.928;25.556;2022-11-23T11:43:57;97721.47;;;16.92;74.20
11912;BME280;6016;41.928;25.556;2022-11-23T11:46:26;97731.94;;;16.94;73.55
11912;BME280;6016;41.928;25.556;2022-11-23T11:48:58;97738.34;;;16.86;74.23
11912;BME280;6016;41.928;25.556;2022-11-23T11:51:32;97717.88;;;16.80;74.28
11912;BME280;6016;41.928;25.556;2022-11-23T11:54:02;97712.34;;;16.81;74.29
11912;BME280;6016;41.928;25.556;2022-11-23T11:56:36;97708.84;;;16.81;74.02
11912;BME280;6016;41.928;25.556;2022-11-23T11:59:12;97725.56;;;16.95;74.60
11912;BME280;6016;41.928;25.556;2022-11-23T12:01:47;97732.56;;;16.89;73.29
11912;BME280;6016;41.928;25.556;2022-11-23T12:04:20;97737.75;;;16.84;73.82
11912;BME280;6016;41.928;25.556;2022-11-23T12:06:54;97686.38;;;16.44;74.76
11912;BME280;6016;41.928;25.556;2022-11-23T12:09:29;97739.84;;;16.75;75.30
11912;BME280;6016;41.928;25.556;2022-11-23T12:11:58;97741.72;;;16.68;74.68
11912;BME280;6016;41.928;25.556;2022-11-23T12:14:25;97726.78;;;16.67;74.97
11912;BME280;6016;41.928;25.556;2022-11-23T12:16:55;97708.66;;;16.50;75.53
11912;BME280;6016;41.928;25.556;2022-11-23T12:19:26;97717.88;;;16.48;75.85
11912;BME280;6016;41.928;25.556;2022-11-23T12:22:15;97735.31;;;16.76;75.83
11912;BME280;6016;41.928;25.556;2022-11-23T12:24:56;97727.03;;;16.91;75.87
11912;BME280;6016;41.928;25.556;2022-11-23T12:27:32;97733.13;;;16.98;75.56
11912;BME280;6016;41.928;25.556;2022-11-23T12:30:15;97730.28;;;16.99;73.66
11912;BME280;6016;41.928;25.556;2022-11-23T12:32:58;97712.09;;;16.90;73.18
11912;BME280;6016;41.928;25.556;2022-11-23T12:35:38;97729.56;;;16.79;75.28
11912;BME280;6016;41.928;25.556;2022-11-23T12:38:19;97724.81;;;16.87;75.00
11912;BME280;6016;41.928;25.556;2022-11-23T12:41:09;97751.63;;;16.93;74.00
11912;BME280;6016;41.928;25.556;2022-11-23T12:43:57;97734.44;;;16.88;74.76
11912;BME280;6016;41.928;25.556;2022-11-23T12:46:36;97708.09;;;16.73;76.05
11912;BME280;6016;41.928;25.556;2022-11-23T12:49:16;97740.75;;;16.94;75.49
11912;BME280;6016;41.928;25.556;2022-11-23T12:51:55;97744.81;;;16.97;75.07
11912;BME280;6016;41.928;25.556;2022-11-23T12:54:40;97746.50;;;16.91;75.46
11912;BME280;6016;41.928;25.556;2022-11-23T12:57:16;97753.56;;;16.72;75.57
11912;BME280;6016;41.928;25.556;2022-11-23T12:59:48;97740.16;;;16.85;75.70
11912;BME280;6016;41.928;25.556;2022-11-23T13:20:29;97742.69;;;17.12;74.66
11912;BME280;6016;41.928;25.556;2022-11-23T13:23:04;97671.97;;;16.52;74.83
11912;BME280;6016;41.928;25.556;2022-11-23T13:25:31;97747.13;;;16.86;76.13
11912;BME280;6016;41.928;25.556;2022-11-23T13:28:00;97722.28;;;16.60;76.38
11912;BME280;6016;41.928;25.556;2022-11-23T13:30:30;97745.81;;;16.70;76.72
11912;BME280;6016;41.928;25.556;2022-11-23T13:35:53;97754.06;;;16.55;76.94
11912;BME280;6016;41.928;25.556;2022-11-23T13:38:34;97742.88;;;16.40;77.29
11912;BME280;6016;41.928;25.556;2022-11-23T13:41:02;97758.44;;;16.36;77.83
11912;BME280;6016;41.928;25.556;2022-11-23T13:43:31;97753.75;;;16.31;77.31
11912;BME280;6016;41.928;25.556;2022-11-23T13:46:20;97769.91;;;16.43;76.59
11912;BME280;6016;41.928;25.556;2022-11-23T13:48:50;97741.13;;;16.13;77.89
11912;BME280;6016;41.928;25.556;2022-11-23T13:51:26;97769.72;;;16.31;77.61
11912;BME280;6016;41.928;25.556;2022-11-23T13:53:59;97723.59;;;15.92;78.41
11912;BME280;6016;41.928;25.556;2022-11-23T13:56:33;97773.25;;;16.19;77.88
11912;BME280;6016;41.928;25.556;2022-11-23T13:59:26;97771.41;;;16.19;78.03
11912;BME280;6016;41.928;25.556;2022-11-23T14:04:43;97724.06;;;15.62;78.67
11912;BME280;6016;41.928;25.556;2022-11-23T14:07:16;97785.16;;;16.02;79.20
11912;BME280;6016;41.928;25.556;2022-11-23T14:09:48;97790.91;;;15.93;79.06
11912;BME280;6016;41.928;25.556;2022-11-23T14:12:21;97776.78;;;15.85;79.47
11912;BME280;6016;41.928;25.556;2022-11-23T14:14:56;97792.31;;;15.75;80.29
11912;BME280;6016;41.928;25.556;2022-11-23T14:17:53;97786.41;;;15.73;80.75
11912;BME280;6016;41.928;25.556;2022-11-23T14:20:54;97792.75;;;15.65;80.47
11912;BME280;6016;41.928;25.556;2022-11-23T14:26:40;97806.22;;;15.64;80.60
11912;BME280;6016;41.928;25.556;2022-11-23T14:29:25;97798.47;;;15.49;80.18
11912;BME280;6016;41.928;25.556;2022-11-23T14:32:14;97780.66;;;15.29;80.14
11912;BME280;6016;41.928;25.556;2022-11-23T14:34:53;97806.44;;;15.49;80.52
11912;BME280;6016;41.928;25.556;2022-11-23T14:37:28;97717.50;;;14.97;80.59
11912;BME280;6016;41.928;25.556;2022-11-23T14:40:04;97805.00;;;15.46;80.65
11912;BME280;6016;41.928;25.556;2022-11-23T14:42:37;97797.41;;;15.23;80.81
11912;BME280;6016;41.928;25.556;2022-11-23T14:45:12;97810.09;;;15.27;81.19
11912;BME280;6016;41.928;25.556;2022-11-23T14:47:39;97810.91;;;15.21;81.36
11912;BME280;6016;41.928;25.556;2022-11-23T14:50:19;97819.28;;;15.25;81.58
11912;BME280;6016;41.928;25.556;2022-11-23T14:52:46;97812.34;;;15.24;81.76
11912;BME280;6016;41.928;25.556;2022-11-23T14:55:17;97806.00;;;15.25;81.32
11912;BME280;6016;41.928;25.556;2022-11-23T14:57:47;97806.22;;;15.23;81.53
11912;BME280;6016;41.928;25.556;2022-11-23T15:00:28;97805.19;;;15.24;81.31
11912;BME280;6016;41.928;25.556;2022-11-23T15:02:59;97788.41;;;15.10;81.60
11912;BME280;6016;41.928;25.556;2022-11-23T15:05:30;97801.06;;;15.15;82.41
11912;BME280;6016;41.928;25.556;2022-11-23T15:08:01;97805.78;;;15.13;81.99
11912;BME280;6016;41.928;25.556;2022-11-23T15:10:36;97805.56;;;15.08;82.28
11912;BME280;6016;41.928;25.556;2022-11-23T15:13:18;97810.66;;;15.02;82.31
11912;BME280;6016;41.928;25.556;2022-11-23T15:15:48;97775.44;;;14.73;82.65
11912;BME280;6016;41.928;25.556;2022-11-23T15:18:26;97810.63;;;14.96;82.59